sensor_id;sensor_type;location;lat;lon;timestamp;pressure;altitude;pressure_sealevel;temperature;humidity
71145;BME280;58812;47.698;17.726;2023-04-19T00:01:18;100365.91;;;7.69;100.00
71145;BME280;58812;47.698;17.726;2023-04-19T00:03:44;100357.94;;;7.69;100.00
71145;BME280;58812;47.698;17.726;2023-04-19T00:06:09;100356.25;;;7.68;100.00
71145;BME280;58812;47.698;17.726;2023-04-19T00:08:35;100358.41;;;7.74;100.00
71145;BME280;58812;47.698;17.726;2023-04-19T00:11:00;100361.91;;;7.75;100.00
71145;BME280;58812;47.698;17.726;2023-04-19T00:13:26;100363.25;;;7.69;100.00
71145;BME280;58812;47.698;17.726;2023-04-19T00:15:51;100360.97;;;7.65;100.00
71145;BME280;58812;47.698;17.726;2023-04-19T00:18:16;100358.81;;;7.59;100.00
71145;BME280;58812;47.698;17.726;2023-04-19T00:20:43;100358.19;;;7.66;100.00
71145;BME280;58812;47.698;17.726;2023-04-19T00:23:08;100353.56;;;7.68;100.00
71145;BME280;58812;47.698;17.726;2023-04-19T00:25:34;100354.28;;;7.70;100.00
71145;BME280;58812;47.698;17.726;2023-04-19T00:28:00;100351.38;;;7.73;100.00
71145;BME280;58812;47.698;17.726;2023-04-19T00:30:25;100345.78;;;7.76;100.00
71145;BME280;58812;47.698;17.726;2023-04-19T00:32:50;100345.06;;;7.74;100.00
71145;BME280;58812;47.698;17.726;2023-04-19T00:35:16;100344.84;;;7.78;100.00
71145;BME280;58812;47.698;17.726;2023-04-19T00:37:41;100341.44;;;7.75;100.00
71145;BME280;58812;47.698;17.726;2023-04-19T00:40:07;100339.50;;;7.78;100.00
71145;BME280;58812;47.698;17.726;2023-04-19T00:42:33;100335.59;;;7.82;100.00
71145;BME280;58812;47.698;17.726;2023-04-19T00:44:58;100337.31;;;7.83;100.00
71145;BME280;58812;47.698;17.726;2023-04-19T00:47:23;100333.41;;;7.87;100.00
71145;BME280;58812;47.698;17.726;2023-04-19T00:49:49;100334.66;;;7.83;100.00
71145;BME280;58812;47.698;17.726;2023-04-19T00:52:14;100325.91;;;7.81;100.00
71145;BME280;58812;47.698;17.726;2023-04-19T00:54:42;100326.66;;;7.83;100.00
71145;BME280;58812;47.698;17.726;2023-04-19T00:57:09;100322.03;;;7.85;100.00
71145;BME280;58812;47.698;17.726;2023-04-19T00:59:34;100322.75;;;7.87;100.00
71145;BME280;58812;47.698;17.726;2023-04-19T01:01:59;100325.28;;;7.88;100.00
71145;BME280;58812;47.698;17.726;2023-04-19T01:04:25;100314.59;;;7.88;100.00
71145;BME280;58812;47.698;17.726;2023-04-19T01:06:51;100316.31;;;7.89;100.00
71145;BME280;58812;47.698;17.726;2023-04-19T01:09:16;100311.84;;;7.90;100.00
71145;BME280;58812;47.698;17.726;2023-04-19T01:11:42;100303.84;;;7.90;100.00
71145;BME280;58812;47.698;17.726;2023-04-19T01:14:07;100303.09;;;7.88;100.00
71145;BME280;58812;47.698;17.726;2023-04-19T01:16:33;100304.34;;;7.84;100.00
71145;BME280;58812;47.698;17.726;2023-04-19T01:18:58;100300.84;;;7.83;100.00
71145;BME280;58812;47.698;17.726;2023-04-19T01:21:23;100297.78;;;7.88;100.00
71145;BME280;58812;47.698;17.726;2023-04-19T01:23:49;100299.34;;;7.90;100.00
71145;BME280;58812;47.698;17.726;2023-04-19T01:26:15;100297.53;;;7.91;100.00
71145;BME280;58812;47.698;17.726;2023-04-19T01:28:41;100307.91;;;7.94;100.00
71145;BME280;58812;47.698;17.726;2023-04-19T01:31:06;100299.50;;;7.89;100.00
71145;BME280;58812;47.698;17.726;2023-04-19T01:33:31;100302.53;;;7.84;100.00
71145;BME280;58812;47.698;17.726;2023-04-19T01:35:57;100295.75;;;7.80;100.00
71145;BME280;58812;47.698;17.726;2023-04-19T01:38:22;100291.91;;;7.73;100.00
71145;BME280;58812;47.698;17.726;2023-04-19T01:40:48;100289.75;;;7.67;100.00
71145;BME280;58812;47.698;17.726;2023-04-19T01:43:16;100293.06;;;7.59;100.00
71145;BME280;58812;47.698;17.726;2023-04-19T01:45:42;100289.34;;;7.50;100.00
71145;BME280;58812;47.698;17.726;2023-04-19T01:48:08;100289.22;;;7.41;100.00
71145;BME280;58812;47.698;17.726;2023-04-19T01:50:33;100285.28;;;7.35;100.00
71145;BME280;58812;47.698;17.726;2023-04-19T01:52:59;100290.22;;;7.29;100.00
71145;BME280;58812;47.698;17.726;2023-04-19T01:55:25;100284.34;;;7.25;100.00
71145;BME280;58812;47.698;17.726;2023-04-19T01:57:50;100278.31;;;7.12;100.00
71145;BME280;58812;47.698;17.726;2023-04-19T02:00:18;100274.34;;;7.06;100.00
71145;BME280;58812;47.698;17.726;2023-04-19T02:02:43;100264.19;;;7.00;100.00
71145;BME280;58812;47.698;17.726;2023-04-19T02:05:09;100268.06;;;6.96;100.00
71145;BME280;58812;47.698;17.726;2023-04-19T02:07:34;100262.38;;;6.89;100.00
71145;BME280;58812;47.698;17.726;2023-04-19T02:10:00;100258.75;;;6.90;100.00
71145;BME280;58812;47.698;17.726;2023-04-19T02:12:27;100257.06;;;6.89;100.00
71145;BME280;58812;47.698;17.726;2023-04-19T02:14:59;100261.41;;;6.90;100.00
71145;BME280;58812;47.698;17.726;2023-04-19T02:17:26;100260.28;;;6.93;100.00
71145;BME280;58812;47.698;17.726;2023-04-19T02:19:51;100267.56;;;6.91;100.00
71145;BME280;58812;47.698;17.726;2023-04-19T02:22:17;100259.34;;;6.94;100.00
71145;BME280;58812;47.698;17.726;2023-04-19T02:24:43;100261.63;;;6.99;100.00
71145;BME280;58812;47.698;17.726;2023-04-19T02:27:09;100256.69;;;6.94;100.00
71145;BME280;58812;47.698;17.726;2023-04-19T02:29:34;100253.41;;;6.90;100.00
71145;BME280;58812;47.698;17.726;2023-04-19T02:31:59;100264.69;;;6.94;100.00
71145;BME280;58812;47.698;17.726;2023-04-19T02:34:26;100257.41;;;6.96;100.00
71145;BME280;58812;47.698;17.726;2023-04-19T02:36:51;100245.66;;;6.99;100.00
71145;BME280;58812;47.698;17.726;2023-04-19T02:39:17;100252.56;;;7.01;100.00
71145;BME280;58812;47.698;17.726;2023-04-19T02:41:42;100264.41;;;6.97;100.00
71145;BME280;58812;47.698;17.726;2023-04-19T02:44:08;100256.78;;;6.92;100.00
71145;BME280;58812;47.698;17.726;2023-04-19T02:46:33;100252.31;;;6.93;100.00
71145;BME280;58812;47.698;17.726;2023-04-19T02:49:02;100245.56;;;6.89;100.00
71145;BME280;58812;47.698;17.726;2023-04-19T02:51:27;100241.94;;;6.90;100.00
71145;BME280;58812;47.698;17.726;2023-04-19T02:53:53;100243.38;;;6.94;100.00
71145;BME280;58812;47.698;17.726;2023-04-19T02:56:19;100243.25;;;6.95;100.00
71145;BME280;58812;47.698;17.726;2023-04-19T02:58:44;100243.25;;;6.95;100.00
71145;BME280;58812;47.698;17.726;2023-04-19T03:01:10;100240.47;;;6.97;100.00
71145;BME280;58812;47.698;17.726;2023-04-19T03:03:35;100230.78;;;6.96;100.00
71145;BME280;58812;47.698;17.726;2023-04-19T03:06:01;100234.03;;;7.00;100.00
71145;BME280;58812;47.698;17.726;2023-04-19T03:08:27;100235.00;;;6.99;100.00
71145;BME280;58812;47.698;17.726;2023-04-19T03:10:52;100238.91;;;6.94;100.00
71145;BME280;58812;47.698;17.726;2023-04-19T03:13:18;100237.19;;;6.93;100.00
71145;BME280;58812;47.698;17.726;2023-04-19T03:15:43;100241.94;;;6.90;100.00
71145;BME280;58812;47.698;17.726;2023-04-19T03:18:09;100231.78;;;6.84;100.00
71145;BME280;58812;47.698;17.726;2023-04-19T03:20:34;100221.97;;;6.84;100.00
71145;BME280;58812;47.698;17.726;2023-04-19T03:23:00;100217.72;;;6.82;100.00
71145;BME280;58812;47.698;17.726;2023-04-19T03:25:25;100214.38;;;6.80;100.00
71145;BME280;58812;47.698;17.726;2023-04-19T03:27:50;100207.22;;;6.80;100.00
71145;BME280;58812;47.698;17.726;2023-04-19T03:30:16;100210.00;;;6.79;100.00
71145;BME280;58812;47.698;17.726;2023-04-19T03:32:42;100203.13;;;6.76;100.00
71145;BME280;58812;47.698;17.726;2023-04-19T03:35:08;100202.66;;;6.71;100.00
71145;BME280;58812;47.698;17.726;2023-04-19T03:37:34;100211.22;;;6.75;100.00
71145;BME280;58812;47.698;17.726;2023-04-19T03:40:00;100213.78;;;6.76;100.00
71145;BME280;58812;47.698;17.726;2023-04-19T03:42:25;100211.22;;;6.75;100.00
71145;BME280;58812;47.698;17.726;2023-04-19T03:44:50;100203.72;;;6.80;100.00
71145;BME280;58812;47.698;17.726;2023-04-19T03:47:16;100203.72;;;6.80;100.00
71145;BME280;58812;47.698;17.726;2023-04-19T03:49:41;100217.72;;;6.82;100.00
71145;BME280;58812;47.698;17.726;2023-04-19T03:52:06;100205.03;;;6.85;100.00
71145;BME280;58812;47.698;17.726;2023-04-19T03:54:32;100204.69;;;6.90;100.00
71145;BME280;58812;47.698;17.726;2023-04-19T03:56:57;100198.00;;;6.95;100.00
71145;BME280;58812;47.698;17.726;2023-04-19T03:59:23;100205.63;;;7.00;100.00
71145;BME280;58812;47.698;17.726;2023-04-19T04:01:49;100207.88;;;7.05;100.00
71145;BME280;58812;47.698;17.726;2023-04-19T04:04:14;100206.69;;;7.09;100.00
71145;BME280;58812;47.698;17.726;2023-04-19T04:06:39;100198.69;;;7.09;100.00
71145;BME280;58812;47.698;17.726;2023-04-19T04:09:05;100204.13;;;7.18;100.00
71145;BME280;58812;47.698;17.726;2023-04-19T04:11:30;100197.69;;;7.21;100.00
71145;BME280;58812;47.698;17.726;2023-04-19T04:13:56;100198.28;;;7.25;100.00
71145;BME280;58812;47.698;17.726;2023-04-19T04:16:21;100205.28;;;7.26;100.00
71145;BME280;58812;47.698;17.726;2023-04-19T04:18:47;100208.66;;;7.28;100.00
71145;BME280;58812;47.698;17.726;2023-04-19T04:21:12;100200.31;;;7.32;100.00
71145;BME280;58812;47.698;17.726;2023-04-19T04:23:37;100202.59;;;7.37;100.00
71145;BME280;58812;47.698;17.726;2023-04-19T04:26:03;100202.47;;;7.38;100.00
71145;BME280;58812;47.698;17.726;2023-04-19T04:28:30;100201.34;;;7.41;100.00
71145;BME280;58812;47.698;17.726;2023-04-19T04:30:58;100201.09;;;7.44;100.00
71145;BME280;58812;47.698;17.726;2023-04-19T04:33:25;100200.81;;;7.47;100.00
71145;BME280;58812;47.698;17.726;2023-04-19T04:35:51;100203.13;;;7.52;100.00
71145;BME280;58812;47.698;17.726;2023-04-19T04:38:18;100201.88;;;7.56;100.00
71145;BME280;58812;47.698;17.726;2023-04-19T04:40:48;100205.16;;;7.59;100.00
71145;BME280;58812;47.698;17.726;2023-04-19T04:43:13;100201.38;;;7.62;100.00
71145;BME280;58812;47.698;17.726;2023-04-19T04:45:39;100204.50;;;7.67;100.00
71145;BME280;58812;47.698;17.726;2023-04-19T04:48:04;100201.69;;;7.68;100.00
71145;BME280;58812;47.698;17.726;2023-04-19T04:50:30;100201.47;;;7.71;100.00
71145;BME280;58812;47.698;17.726;2023-04-19T04:52:56;100204.53;;;7.76;100.00
71145;BME280;58812;47.698;17.726;2023-04-19T04:55:21;100205.00;;;7.82;100.00
71145;BME280;58812;47.698;17.726;2023-04-19T04:57:47;100194.25;;;7.83;100.00
71145;BME280;58812;47.698;17.726;2023-04-19T05:00:12;100205.47;;;7.87;100.00
71145;BME280;58812;47.698;17.726;2023-04-19T05:02:38;100201.81;;;7.88;100.00
71145;BME280;58812;47.698;17.726;2023-04-19T05:05:03;100195.12;;;7.93;100.00
71145;BME280;58812;47.698;17.726;2023-04-19T05:07:29;100199.22;;;7.97;100.00
71145;BME280;58812;47.698;17.726;2023-04-19T05:09:54;100198.97;;;8.00;100.00
71145;BME280;58812;47.698;17.726;2023-04-19T05:12:19;100198.56;;;8.05;100.00
71145;BME280;58812;47.698;17.726;2023-04-19T05:14:45;100194.28;;;8.14;100.00
71145;BME280;58812;47.698;17.726;2023-04-19T05:17:10;100194.13;;;8.15;100.00
71145;BME280;58812;47.698;17.726;2023-04-19T05:19:36;100195.03;;;8.25;100.00
71145;BME280;58812;47.698;17.726;2023-04-19T05:22:01;100194.75;;;8.28;100.00
71145;BME280;58812;47.698;17.726;2023-04-19T05:24:26;100199.47;;;8.36;100.00
71145;BME280;58812;47.698;17.726;2023-04-19T05:26:52;100192.03;;;8.40;100.00
71145;BME280;58812;47.698;17.726;2023-04-19T05:29:17;100194.88;;;8.48;100.00
71145;BME280;58812;47.698;17.726;2023-04-19T05:31:42;100196.47;;;8.60;100.00
71145;BME280;58812;47.698;17.726;2023-04-19T05:34:08;100197.75;;;8.66;100.00
71145;BME280;58812;47.698;17.726;2023-04-19T05:36:33;100198.03;;;8.72;100.00
71145;BME280;58812;47.698;17.726;2023-04-19T05:38:59;100196.09;;;8.84;100.00
71145;BME280;58812;47.698;17.726;2023-04-19T05:41:25;100189.37;;;8.90;100.00
71145;BME280;58812;47.698;17.726;2023-04-19T05:43:50;100195.56;;;9.00;100.00
71145;BME280;58812;47.698;17.726;2023-04-19T05:46:16;100193.06;;;9.08;100.00
71145;BME280;58812;47.698;17.726;2023-04-19T05:48:41;100197.28;;;9.20;100.00
71145;BME280;58812;47.698;17.726;2023-04-19T05:51:07;100192.19;;;9.17;100.00
71145;BME280;58812;47.698;17.726;2023-04-19T05:53:32;100198.12;;;9.21;100.00
71145;BME280;58812;47.698;17.726;2023-04-19T05:55:57;100188.41;;;9.29;100.00
71145;BME280;58812;47.698;17.726;2023-04-19T05:58:23;100184.62;;;9.42;100.00
71145;BME280;58812;47.698;17.726;2023-04-19T06:00:50;100191.91;;;9.59;100.00
71145;BME280;58812;47.698;17.726;2023-04-19T06:03:15;100188.69;;;9.75;100.00
71145;BME280;58812;47.698;17.726;2023-04-19T06:05:41;100184.19;;;9.66;100.00
71145;BME280;58812;47.698;17.726;2023-04-19T06:08:07;100194.44;;;9.70;100.00
71145;BME280;58812;47.698;17.726;2023-04-19T06:10:34;100196.00;;;9.73;100.00
71145;BME280;58812;47.698;17.726;2023-04-19T06:13:00;100190.38;;;9.56;100.00
71145;BME280;58812;47.698;17.726;2023-04-19T06:15:26;100183.63;;;9.52;100.00
71145;BME280;58812;47.698;17.726;2023-04-19T06:17:51;100183.63;;;9.62;100.00
71145;BME280;58812;47.698;17.726;2023-04-19T06:20:17;100185.75;;;9.49;100.00
71145;BME280;58812;47.698;17.726;2023-04-19T06:22:44;100192.38;;;9.45;100.00
71145;BME280;58812;47.698;17.726;2023-04-19T06:25:09;100194.19;;;9.34;100.00
71145;BME280;58812;47.698;17.726;2023-04-19T06:27:35;100194.06;;;9.55;100.00
71145;BME280;58812;47.698;17.726;2023-04-19T06:30:01;100187.44;;;9.50;100.00
71145;BME280;58812;47.698;17.726;2023-04-19T06:32:26;100185.03;;;9.47;100.00
71145;BME280;58812;47.698;17.726;2023-04-19T06:34:52;100193.47;;;9.61;100.00
71145;BME280;58812;47.698;17.726;2023-04-19T06:37:17;100197.00;;;9.52;100.00
71145;BME280;58812;47.698;17.726;2023-04-19T06:39:42;100188.81;;;9.54;100.00
71145;BME280;58812;47.698;17.726;2023-04-19T06:42:08;100191.44;;;10.02;100.00
71145;BME280;58812;47.698;17.726;2023-04-19T06:44:33;100181.38;;;9.67;100.00
71145;BME280;58812;47.698;17.726;2023-04-19T06:46:59;100188.84;;;9.63;100.00
71145;BME280;58812;47.698;17.726;2023-04-19T06:49:24;100184.06;;;9.67;100.00
71145;BME280;58812;47.698;17.726;2023-04-19T06:51:50;100188.94;;;9.81;100.00
71145;BME280;58812;47.698;17.726;2023-04-19T06:54:15;100186.78;;;10.04;100.00
71145;BME280;58812;47.698;17.726;2023-04-19T06:56:46;100178.84;;;10.22;100.00
71145;BME280;58812;47.698;17.726;2023-04-19T06:59:17;100177.31;;;11.38;100.00
71145;BME280;58812;47.698;17.726;2023-04-19T07:01:44;100178.94;;;11.48;100.00
71145;BME280;58812;47.698;17.726;2023-04-19T07:04:10;100181.28;;;11.87;100.00
71145;BME280;58812;47.698;17.726;2023-04-19T07:06:36;100180.59;;;11.85;100.00
71145;BME280;58812;47.698;17.726;2023-04-19T07:09:02;100183.97;;;13.40;100.00
71145;BME280;58812;47.698;17.726;2023-04-19T07:11:28;100184.41;;;12.69;100.00
71145;BME280;58812;47.698;17.726;2023-04-19T07:13:54;100184.50;;;12.51;100.00
71145;BME280;58812;47.698;17.726;2023-04-19T07:16:20;100185.94;;;12.71;97.25
71145;BME280;58812;47.698;17.726;2023-04-19T07:18:45;100175.87;;;12.05;98.64
71145;BME280;58812;47.698;17.726;2023-04-19T07:21:11;100176.31;;;12.26;98.63
71145;BME280;58812;47.698;17.726;2023-04-19T07:23:36;100185.50;;;12.50;97.40
71145;BME280;58812;47.698;17.726;2023-04-19T07:26:02;100177.06;;;12.37;98.86
71145;BME280;58812;47.698;17.726;2023-04-19T07:28:28;100178.97;;;12.95;97.85
71145;BME280;58812;47.698;17.726;2023-04-19T07:30:53;100178.53;;;12.65;98.42
71145;BME280;58812;47.698;17.726;2023-04-19T07:33:19;100180.75;;;12.86;97.67
71145;BME280;58812;47.698;17.726;2023-04-19T07:35:45;100177.94;;;12.11;98.86
71145;BME280;58812;47.698;17.726;2023-04-19T07:38:10;100182.06;;;12.66;98.76
71145;BME280;58812;47.698;17.726;2023-04-19T07:40:36;100177.62;;;12.48;96.82
71145;BME280;58812;47.698;17.726;2023-04-19T07:43:01;100182.91;;;13.33;95.00
71145;BME280;58812;47.698;17.726;2023-04-19T07:45:29;100180.44;;;12.89;95.23
71145;BME280;58812;47.698;17.726;2023-04-19T07:47:54;100183.16;;;12.97;95.74
71145;BME280;58812;47.698;17.726;2023-04-19T07:50:20;100178.59;;;12.39;97.48
71145;BME280;58812;47.698;17.726;2023-04-19T07:52:45;100179.13;;;12.17;100.00
71145;BME280;58812;47.698;17.726;2023-04-19T07:55:11;100164.81;;;12.34;96.27
71145;BME280;58812;47.698;17.726;2023-04-19T07:57:36;100181.94;;;12.83;98.84
71145;BME280;58812;47.698;17.726;2023-04-19T08:00:02;100174.62;;;12.60;97.93
71145;BME280;58812;47.698;17.726;2023-04-19T08:02:29;100171.78;;;12.61;94.87
71145;BME280;58812;47.698;17.726;2023-04-19T08:04:54;100170.94;;;12.52;96.69
71145;BME280;58812;47.698;17.726;2023-04-19T08:07:20;100172.34;;;13.23;94.51
71145;BME280;58812;47.698;17.726;2023-04-19T08:09:47;100175.53;;;13.51;91.62
71145;BME280;58812;47.698;17.726;2023-04-19T08:12:13;100183.44;;;12.78;95.07
71145;BME280;58812;47.698;17.726;2023-04-19T08:14:38;100167.69;;;12.83;95.21
71145;BME280;58812;47.698;17.726;2023-04-19T08:17:04;100179.75;;;13.54;92.84
71145;BME280;58812;47.698;17.726;2023-04-19T08:19:30;100175.72;;;12.75;93.33
71145;BME280;58812;47.698;17.726;2023-04-19T08:21:55;100180.75;;;12.78;94.63
71145;BME280;58812;47.698;17.726;2023-04-19T08:24:21;100170.72;;;12.96;93.52
71145;BME280;58812;47.698;17.726;2023-04-19T08:26:47;100172.53;;;12.79;95.72
71145;BME280;58812;47.698;17.726;2023-04-19T08:29:19;100171.31;;;13.24;96.42
71145;BME280;58812;47.698;17.726;2023-04-19T08:31:45;100171.66;;;13.29;93.35
71145;BME280;58812;47.698;17.726;2023-04-19T08:34:10;100173.84;;;13.34;91.21
71145;BME280;58812;47.698;17.726;2023-04-19T08:36:36;100171.50;;;13.72;91.15
71145;BME280;58812;47.698;17.726;2023-04-19T08:39:01;100175.87;;;13.48;91.27
71145;BME280;58812;47.698;17.726;2023-04-19T08:41:29;100169.94;;;13.12;93.40
71145;BME280;58812;47.698;17.726;2023-04-19T08:43:54;100162.06;;;13.27;91.00
71145;BME280;58812;47.698;17.726;2023-04-19T08:46:23;100168.38;;;14.32;89.10
71145;BME280;58812;47.698;17.726;2023-04-19T08:48:49;100161.97;;;14.33;89.40
71145;BME280;58812;47.698;17.726;2023-04-19T08:51:16;100163.72;;;14.09;89.84
71145;BME280;58812;47.698;17.726;2023-04-19T08:53:42;100159.78;;;14.36;87.58
71145;BME280;58812;47.698;17.726;2023-04-19T08:56:08;100158.28;;;15.04;86.30
71145;BME280;58812;47.698;17.726;2023-04-19T08:58:34;100152.50;;;15.15;84.35
71145;BME280;58812;47.698;17.726;2023-04-19T09:01:03;100152.87;;;14.34;85.82
71145;BME280;58812;47.698;17.726;2023-04-19T09:03:28;100157.44;;;14.25;86.01
71145;BME280;58812;47.698;17.726;2023-04-19T09:05:54;100154.28;;;14.13;85.45
71145;BME280;58812;47.698;17.726;2023-04-19T09:08:27;100152.00;;;13.53;86.06
71145;BME280;58812;47.698;17.726;2023-04-19T09:10:55;100146.41;;;13.96;86.56
71145;BME280;58812;47.698;17.726;2023-04-19T09:13:20;100143.69;;;14.04;85.15
71145;BME280;58812;47.698;17.726;2023-04-19T09:15:46;100145.59;;;13.79;84.69
71145;BME280;58812;47.698;17.726;2023-04-19T09:18:11;100146.25;;;13.89;85.02
71145;BME280;58812;47.698;17.726;2023-04-19T09:20:39;100142.75;;;13.88;85.83
71145;BME280;58812;47.698;17.726;2023-04-19T09:23:07;100139.38;;;13.62;86.00
71145;BME280;58812;47.698;17.726;2023-04-19T09:25:33;100140.75;;;13.66;86.45
71145;BME280;58812;47.698;17.726;2023-04-19T09:28:12;100141.56;;;13.75;86.83
71145;BME280;58812;47.698;17.726;2023-04-19T09:30:38;100133.16;;;13.61;84.53
71145;BME280;58812;47.698;17.726;2023-04-19T09:33:04;100135.03;;;13.36;84.70
71145;BME280;58812;47.698;17.726;2023-04-19T09:35:45;100139.31;;;12.97;86.32
71145;BME280;58812;47.698;17.726;2023-04-19T09:38:12;100138.22;;;13.24;86.34
71145;BME280;58812;47.698;17.726;2023-04-19T09:40:38;100133.69;;;13.32;85.07
71145;BME280;58812;47.698;17.726;2023-04-19T09:43:04;100131.31;;;13.21;86.73
71145;BME280;58812;47.698;17.726;2023-04-19T09:45:45;100125.13;;;13.37;85.80
71145;BME280;58812;47.698;17.726;2023-04-19T09:48:12;100123.06;;;13.06;87.19
71145;BME280;58812;47.698;17.726;2023-04-19T09:50:56;100128.75;;;13.03;87.45
71145;BME280;58812;47.698;17.726;2023-04-19T09:53:24;100128.44;;;13.06;87.64
71145;BME280;58812;47.698;17.726;2023-04-19T09:55:50;100131.44;;;12.95;87.08
71145;BME280;58812;47.698;17.726;2023-04-19T09:58:17;100129.78;;;13.10;87.71
71145;BME280;58812;47.698;17.726;2023-04-19T10:00:47;100138.41;;;13.30;86.88
71145;BME280;58812;47.698;17.726;2023-04-19T10:03:18;100123.41;;;13.20;86.16
71145;BME280;58812;47.698;17.726;2023-04-19T10:05:46;100127.63;;;13.39;84.47
71145;BME280;58812;47.698;17.726;2023-04-19T10:08:12;100130.34;;;13.47;85.18
71145;BME280;58812;47.698;17.726;2023-04-19T10:10:39;100130.16;;;13.48;83.73
71145;BME280;58812;47.698;17.726;2023-04-19T10:13:07;100126.47;;;13.41;83.78
71145;BME280;58812;47.698;17.726;2023-04-19T10:15:36;100127.12;;;13.51;83.23
71145;BME280;58812;47.698;17.726;2023-04-19T10:18:03;100126.41;;;13.90;86.03
71145;BME280;58812;47.698;17.726;2023-04-19T10:21:03;100131.69;;;13.59;83.55
71145;BME280;58812;47.698;17.726;2023-04-19T10:23:31;100135.50;;;13.89;84.04
71145;BME280;58812;47.698;17.726;2023-04-19T10:25:57;100132.34;;;13.61;81.19
71145;BME280;58812;47.698;17.726;2023-04-19T10:28:24;100125.41;;;13.18;82.86
71145;BME280;58812;47.698;17.726;2023-04-19T10:31:00;100125.94;;;13.46;82.16
71145;BME280;58812;47.698;17.726;2023-04-19T10:33:28;100127.81;;;13.53;85.89
71145;BME280;58812;47.698;17.726;2023-04-19T10:35:57;100134.69;;;13.23;82.32
71145;BME280;58812;47.698;17.726;2023-04-19T10:41:01;100132.13;;;13.05;84.27
71145;BME280;58812;47.698;17.726;2023-04-19T10:43:34;100128.09;;;13.01;83.89
71145;BME280;58812;47.698;17.726;2023-04-19T10:48:31;100131.81;;;13.17;84.53
71145;BME280;58812;47.698;17.726;2023-04-19T10:51:20;100133.84;;;13.31;82.84
71145;BME280;58812;47.698;17.726;2023-04-19T10:53:52;100118.75;;;13.30;85.52
71145;BME280;58812;47.698;17.726;2023-04-19T11:09:26;100125.44;;;13.67;81.20
71145;BME280;58812;47.698;17.726;2023-04-19T11:11:53;100123.41;;;13.77;81.89
71145;BME280;58812;47.698;17.726;2023-04-19T11:14:22;100118.91;;;13.53;82.14
71145;BME280;58812;47.698;17.726;2023-04-19T11:16:48;100117.22;;;13.35;84.33
71145;BME280;58812;47.698;17.726;2023-04-19T11:19:17;100119.06;;;13.43;84.23
71145;BME280;58812;47.698;17.726;2023-04-19T11:21:46;100117.88;;;13.62;82.55
71145;BME280;58812;47.698;17.726;2023-04-19T11:24:12;100118.06;;;13.52;81.19
71145;BME280;58812;47.698;17.726;2023-04-19T11:26:41;100111.00;;;13.43;79.69
71145;BME280;58812;47.698;17.726;2023-04-19T11:29:08;100110.81;;;13.45;79.33
71145;BME280;58812;47.698;17.726;2023-04-19T11:31:34;100114.16;;;13.79;79.44
71145;BME280;58812;47.698;17.726;2023-04-19T11:34:01;100120.22;;;13.73;78.90
71145;BME280;58812;47.698;17.726;2023-04-19T11:36:27;100118.37;;;13.82;77.01
71145;BME280;58812;47.698;17.726;2023-04-19T11:38:52;100126.62;;;14.36;75.92
71145;BME280;58812;47.698;17.726;2023-04-19T11:41:18;100125.28;;;13.60;72.48
71145;BME280;58812;47.698;17.726;2023-04-19T11:43:44;100121.38;;;13.79;72.26
71145;BME280;58812;47.698;17.726;2023-04-19T11:46:11;100124.28;;;13.45;72.29
71145;BME280;58812;47.698;17.726;2023-04-19T11:48:38;100122.22;;;13.87;73.08
71145;BME280;58812;47.698;17.726;2023-04-19T11:51:04;100128.75;;;13.93;70.15
71145;BME280;58812;47.698;17.726;2023-04-19T11:53:31;100124.44;;;13.59;70.88
71145;BME280;58812;47.698;17.726;2023-04-19T11:56:04;100115.53;;;14.23;70.16
71145;BME280;58812;47.698;17.726;2023-04-19T11:58:43;100117.53;;;14.29;70.18
71145;BME280;58812;47.698;17.726;2023-04-19T12:01:11;100117.03;;;14.33;70.22
71145;BME280;58812;47.698;17.726;2023-04-19T12:03:48;100123.56;;;14.47;67.65
71145;BME280;58812;47.698;17.726;2023-04-19T12:06:15;100121.69;;;15.10;67.57
71145;BME280;58812;47.698;17.726;2023-04-19T12:08:47;100118.63;;;14.90;65.81
71145;BME280;58812;47.698;17.726;2023-04-19T12:11:13;100124.16;;;15.19;65.48
71145;BME280;58812;47.698;17.726;2023-04-19T12:13:39;100118.09;;;14.63;66.64
71145;BME280;58812;47.698;17.726;2023-04-19T12:16:05;100102.81;;;15.33;64.11
71145;BME280;58812;47.698;17.726;2023-04-19T12:18:45;100107.53;;;14.85;65.51
71145;BME280;58812;47.698;17.726;2023-04-19T12:21:29;100110.91;;;14.56;66.96
71145;BME280;58812;47.698;17.726;2023-04-19T12:23:57;100103.62;;;15.56;63.99
71145;BME280;58812;47.698;17.726;2023-04-19T12:26:24;100095.50;;;14.95;64.59
71145;BME280;58812;47.698;17.726;2023-04-19T12:28:50;100099.69;;;15.21;63.46
71145;BME280;58812;47.698;17.726;2023-04-19T12:31:15;100098.13;;;15.04;64.65
71145;BME280;58812;47.698;17.726;2023-04-19T12:33:41;100100.06;;;14.95;63.04
71145;BME280;58812;47.698;17.726;2023-04-19T12:36:06;100097.41;;;14.87;61.01
71145;BME280;58812;47.698;17.726;2023-04-19T12:38:32;100101.34;;;15.45;61.39
71145;BME280;58812;47.698;17.726;2023-04-19T12:40:57;100101.63;;;15.88;59.76
71145;BME280;58812;47.698;17.726;2023-04-19T12:43:22;100104.94;;;15.60;59.32
71145;BME280;58812;47.698;17.726;2023-04-19T12:45:48;100095.50;;;15.94;57.37
71145;BME280;58812;47.698;17.726;2023-04-19T12:48:13;100102.31;;;15.90;58.45
71145;BME280;58812;47.698;17.726;2023-04-19T12:50:39;100097.06;;;15.73;58.97
71145;BME280;58812;47.698;17.726;2023-04-19T12:53:04;100098.69;;;15.60;58.91
71145;BME280;58812;47.698;17.726;2023-04-19T12:55:30;100100.84;;;15.64;57.33